sensor_id;sensor_type;location;lat;lon;timestamp;temperature;humidity
26691;DHT22;14307;51.718;8.938;2022-09-21T00:01:15;4.30;99.90
26691;DHT22;14307;51.718;8.938;2022-09-21T00:03:43;4.20;99.90
26691;DHT22;14307;51.718;8.938;2022-09-21T00:06:13;4.10;99.90
26691;DHT22;14307;51.718;8.938;2022-09-21T00:08:40;4.10;99.90
26691;DHT22;14307;51.718;8.938;2022-09-21T00:11:15;4.30;99.90
26691;DHT22;14307;51.718;8.938;2022-09-21T00:13:43;4.30;99.90
26691;DHT22;14307;51.718;8.938;2022-09-21T00:16:14;4.10;99.90
26691;DHT22;14307;51.718;8.938;2022-09-21T00:18:41;4.00;99.90
26691;DHT22;14307;51.718;8.938;2022-09-21T00:21:10;3.90;99.90
26691;DHT22;14307;51.718;8.938;2022-09-21T00:23:38;3.80;99.90
26691;DHT22;14307;51.718;8.938;2022-09-21T00:26:10;4.00;99.90
26691;DHT22;14307;51.718;8.938;2022-09-21T00:28:37;4.00;99.90
26691;DHT22;14307;51.718;8.938;2022-09-21T00:31:08;3.90;99.90
26691;DHT22;14307;51.718;8.938;2022-09-21T00:33:39;3.90;99.90
26691;DHT22;14307;51.718;8.938;2022-09-21T00:36:11;3.80;99.90
26691;DHT22;14307;51.718;8.938;2022-09-21T00:38:38;3.80;99.90
26691;DHT22;14307;51.718;8.938;2022-09-21T00:41:07;3.80;99.90
26691;DHT22;14307;51.718;8.938;2022-09-21T00:43:41;3.80;99.90
26691;DHT22;14307;51.718;8.938;2022-09-21T00:46:27;3.80;99.90
26691;DHT22;14307;51.718;8.938;2022-09-21T00:48:56;3.80;99.90
26691;DHT22;14307;51.718;8.938;2022-09-21T00:51:24;3.80;99.90
26691;DHT22;14307;51.718;8.938;2022-09-21T00:53:55;3.80;99.90
26691;DHT22;14307;51.718;8.938;2022-09-21T00:56:25;3.70;99.90
26691;DHT22;14307;51.718;8.938;2022-09-21T00:58:53;3.80;99.90
26691;DHT22;14307;51.718;8.938;2022-09-21T01:01:21;3.90;99.90
26691;DHT22;14307;51.718;8.938;2022-09-21T01:03:50;3.90;99.90
26691;DHT22;14307;51.718;8.938;2022-09-21T01:06:19;3.90;99.90
26691;DHT22;14307;51.718;8.938;2022-09-21T01:08:49;3.80;99.90
26691;DHT22;14307;51.718;8.938;2022-09-21T01:11:52;3.70;99.90
26691;DHT22;14307;51.718;8.938;2022-09-21T01:17:48;4.00;99.90
26691;DHT22;14307;51.718;8.938;2022-09-21T01:20:30;3.90;99.90
26691;DHT22;14307;51.718;8.938;2022-09-21T01:23:37;3.90;99.90
26691;DHT22;14307;51.718;8.938;2022-09-21T01:29:15;3.90;99.90
26691;DHT22;14307;51.718;8.938;2022-09-21T01:31:54;4.00;99.90
26691;DHT22;14307;51.718;8.938;2022-09-21T01:34:30;4.00;99.90
26691;DHT22;14307;51.718;8.938;2022-09-21T01:37:05;3.80;99.90
26691;DHT22;14307;51.718;8.938;2022-09-21T01:39:33;3.90;99.90
26691;DHT22;14307;51.718;8.938;2022-09-21T01:42:02;3.90;99.90
26691;DHT22;14307;51.718;8.938;2022-09-21T01:44:32;3.90;99.90
26691;DHT22;14307;51.718;8.938;2022-09-21T01:47:02;3.90;99.90
26691;DHT22;14307;51.718;8.938;2022-09-21T01:49:34;3.70;99.90
26691;DHT22;14307;51.718;8.938;2022-09-21T01:52:17;3.70;99.90
26691;DHT22;14307;51.718;8.938;2022-09-21T01:54:53;3.80;99.90
26691;DHT22;14307;51.718;8.938;2022-09-21T01:57:30;3.90;99.90
26691;DHT22;14307;51.718;8.938;2022-09-21T02:00:00;3.90;99.90
26691;DHT22;14307;51.718;8.938;2022-09-21T02:02:50;3.70;99.90
26691;DHT22;14307;51.718;8.938;2022-09-21T02:05:23;3.70;99.90
26691;DHT22;14307;51.718;8.938;2022-09-21T02:07:51;3.50;99.90
26691;DHT22;14307;51.718;8.938;2022-09-21T02:10:22;3.50;99.90
26691;DHT22;14307;51.718;8.938;2022-09-21T02:12:53;3.50;99.90
26691;DHT22;14307;51.718;8.938;2022-09-21T02:16:17;3.40;99.90
26691;DHT22;14307;51.718;8.938;2022-09-21T02:20:51;3.30;99.90
26691;DHT22;14307;51.718;8.938;2022-09-21T02:23:36;3.30;99.90
26691;DHT22;14307;51.718;8.938;2022-09-21T02:26:14;3.20;99.90
26691;DHT22;14307;51.718;8.938;2022-09-21T02:28:54;3.20;99.90
26691;DHT22;14307;51.718;8.938;2022-09-21T02:34:01;3.10;99.90
26691;DHT22;14307;51.718;8.938;2022-09-21T02:39:17;3.10;99.90
26691;DHT22;14307;51.718;8.938;2022-09-21T02:42:00;3.10;99.90
26691;DHT22;14307;51.718;8.938;2022-09-21T02:44:37;3.10;99.90
26691;DHT22;14307;51.718;8.938;2022-09-21T02:47:17;3.10;99.90
26691;DHT22;14307;51.718;8.938;2022-09-21T02:49:48;3.20;99.90
26691;DHT22;14307;51.718;8.938;2022-09-21T02:52:17;3.10;99.90
26691;DHT22;14307;51.718;8.938;2022-09-21T02:54:48;3.10;99.90
26691;DHT22;14307;51.718;8.938;2022-09-21T02:57:17;3.20;99.90
26691;DHT22;14307;51.718;8.938;2022-09-21T02:59:44;3.20;99.90
26691;DHT22;14307;51.718;8.938;2022-09-21T03:02:12;3.20;99.90
26691;DHT22;14307;51.718;8.938;2022-09-21T03:04:40;3.30;99.90
26691;DHT22;14307;51.718;8.938;2022-09-21T03:07:08;3.30;99.90
26691;DHT22;14307;51.718;8.938;2022-09-21T03:09:36;3.30;99.90
26691;DHT22;14307;51.718;8.938;2022-09-21T03:12:03;3.30;99.90
26691;DHT22;14307;51.718;8.938;2022-09-21T03:14:30;3.30;99.90
26691;DHT22;14307;51.718;8.938;2022-09-21T03:17:01;3.20;99.90
26691;DHT22;14307;51.718;8.938;2022-09-21T03:19:28;3.20;99.90
26691;DHT22;14307;51.718;8.938;2022-09-21T03:21:54;3.20;99.90
26691;DHT22;14307;51.718;8.938;2022-09-21T03:24:21;3.10;99.90
26691;DHT22;14307;51.718;8.938;2022-09-21T03:27:07;2.90;99.90
26691;DHT22;14307;51.718;8.938;2022-09-21T03:29:34;2.90;99.90
26691;DHT22;14307;51.718;8.938;2022-09-21T03:32:01;3.00;99.90
26691;DHT22;14307;51.718;8.938;2022-09-21T03:34:29;3.00;99.90
26691;DHT22;14307;51.718;8.938;2022-09-21T03:36:56;3.00;99.90
26691;DHT22;14307;51.718;8.938;2022-09-21T03:39:23;2.90;99.90
26691;DHT22;14307;51.718;8.938;2022-09-21T03:41:50;2.90;99.90
26691;DHT22;14307;51.718;8.938;2022-09-21T03:44:17;2.80;99.90
26691;DHT22;14307;51.718;8.938;2022-09-21T03:46:45;2.70;99.90
26691;DHT22;14307;51.718;8.938;2022-09-21T03:49:15;2.60;99.90
26691;DHT22;14307;51.718;8.938;2022-09-21T03:51:43;2.60;99.90
26691;DHT22;14307;51.718;8.938;2022-09-21T03:54:10;2.60;99.90
26691;DHT22;14307;51.718;8.938;2022-09-21T03:56:40;2.70;99.90
26691;DHT22;14307;51.718;8.938;2022-09-21T03:59:07;2.90;99.90
26691;DHT22;14307;51.718;8.938;2022-09-21T04:01:39;2.90;99.90
26691;DHT22;14307;51.718;8.938;2022-09-21T04:04:06;2.90;99.90
26691;DHT22;14307;51.718;8.938;2022-09-21T04:06:33;3.00;99.90
26691;DHT22;14307;51.718;8.938;2022-09-21T04:09:02;2.90;99.90
26691;DHT22;14307;51.718;8.938;2022-09-21T04:11:29;3.00;99.90
26691;DHT22;14307;51.718;8.938;2022-09-21T04:13:58;2.90;99.90
26691;DHT22;14307;51.718;8.938;2022-09-21T04:16:26;2.80;99.90
26691;DHT22;14307;51.718;8.938;2022-09-21T04:18:53;2.70;99.90
26691;DHT22;14307;51.718;8.938;2022-09-21T04:21:19;2.70;99.90
26691;DHT22;14307;51.718;8.938;2022-09-21T04:23:48;2.70;99.90
26691;DHT22;14307;51.718;8.938;2022-09-21T04:26:21;2.70;99.90
26691;DHT22;14307;51.718;8.938;2022-09-21T04:28:49;2.80;99.90
26691;DHT22;14307;51.718;8.938;2022-09-21T04:31:16;2.70;99.90
26691;DHT22;14307;51.718;8.938;2022-09-21T04:33:43;2.60;99.90
26691;DHT22;14307;51.718;8.938;2022-09-21T04:36:09;2.60;99.90
26691;DHT22;14307;51.718;8.938;2022-09-21T04:38:36;2.60;99.90
26691;DHT22;14307;51.718;8.938;2022-09-21T04:41:03;2.60;99.90
26691;DHT22;14307;51.718;8.938;2022-09-21T04:43:30;2.70;99.90
26691;DHT22;14307;51.718;8.938;2022-09-21T04:45:57;2.70;99.90
26691;DHT22;14307;51.718;8.938;2022-09-21T04:48:24;2.90;99.90
26691;DHT22;14307;51.718;8.938;2022-09-21T04:50:50;3.00;99.90
26691;DHT22;14307;51.718;8.938;2022-09-21T04:53:17;2.80;99.90
26691;DHT22;14307;51.718;8.938;2022-09-21T04:55:44;2.70;99.90
26691;DHT22;14307;51.718;8.938;2022-09-21T04:58:12;2.70;99.90
26691;DHT22;14307;51.718;8.938;2022-09-21T05:00:38;2.70;99.90
26691;DHT22;14307;51.718;8.938;2022-09-21T05:03:05;2.80;99.90
26691;DHT22;14307;51.718;8.938;2022-09-21T05:05:32;2.70;99.90
26691;DHT22;14307;51.718;8.938;2022-09-21T05:07:59;2.70;99.90
26691;DHT22;14307;51.718;8.938;2022-09-21T05:10:25;2.90;99.90
26691;DHT22;14307;51.718;8.938;2022-09-21T05:12:52;2.70;99.90
26691;DHT22;14307;51.718;8.938;2022-09-21T05:15:20;2.60;99.90
26691;DHT22;14307;51.718;8.938;2022-09-21T05:17:47;2.60;99.90
26691;DHT22;14307;51.718;8.938;2022-09-21T05:20:14;2.50;99.90
26691;DHT22;14307;51.718;8.938;2022-09-21T05:22:41;2.30;99.90
26691;DHT22;14307;51.718;8.938;2022-09-21T05:25:08;2.20;99.90
26691;DHT22;14307;51.718;8.938;2022-09-21T05:27:34;2.20;99.90
26691;DHT22;14307;51.718;8.938;2022-09-21T05:30:01;2.20;99.90
26691;DHT22;14307;51.718;8.938;2022-09-21T05:35:31;2.40;99.90
26691;DHT22;14307;51.718;8.938;2022-09-21T05:37:58;2.40;99.90
26691;DHT22;14307;51.718;8.938;2022-09-21T05:40:26;2.60;99.90
26691;DHT22;14307;51.718;8.938;2022-09-21T05:42:53;2.70;99.90
26691;DHT22;14307;51.718;8.938;2022-09-21T05:45:20;2.80;99.90
26691;DHT22;14307;51.718;8.938;2022-09-21T05:53:15;3.00;99.90
26691;DHT22;14307;51.718;8.938;2022-09-21T05:55:55;3.00;99.90
26691;DHT22;14307;51.718;8.938;2022-09-21T06:03:49;3.20;99.90
26691;DHT22;14307;51.718;8.938;2022-09-21T06:06:17;3.10;99.90
26691;DHT22;14307;51.718;8.938;2022-09-21T06:08:44;3.00;99.90
26691;DHT22;14307;51.718;8.938;2022-09-21T06:11:12;3.10;99.90
26691;DHT22;14307;51.718;8.938;2022-09-21T06:13:39;3.20;99.90
26691;DHT22;14307;51.718;8.938;2022-09-21T06:16:09;3.30;99.90
26691;DHT22;14307;51.718;8.938;2022-09-21T06:18:37;3.30;99.90
26691;DHT22;14307;51.718;8.938;2022-09-21T06:21:06;3.40;99.90
26691;DHT22;14307;51.718;8.938;2022-09-21T06:23:34;3.50;99.90
26691;DHT22;14307;51.718;8.938;2022-09-21T06:26:01;3.50;99.90
26691;DHT22;14307;51.718;8.938;2022-09-21T06:28:27;3.60;99.90
26691;DHT22;14307;51.718;8.938;2022-09-21T06:30:56;3.60;99.90
26691;DHT22;14307;51.718;8.938;2022-09-21T06:33:24;3.60;99.90
26691;DHT22;14307;51.718;8.938;2022-09-21T06:35:56;3.80;99.90
26691;DHT22;14307;51.718;8.938;2022-09-21T06:38:26;3.80;99.90
26691;DHT22;14307;51.718;8.938;2022-09-21T06:40:53;3.90;99.90
26691;DHT22;14307;51.718;8.938;2022-09-21T06:43:21;4.00;99.90
26691;DHT22;14307;51.718;8.938;2022-09-21T06:45:56;4.20;99.90
26691;DHT22;14307;51.718;8.938;2022-09-21T06:48:24;4.40;99.90
26691;DHT22;14307;51.718;8.938;2022-09-21T06:50:58;4.50;99.90
26691;DHT22;14307;51.718;8.938;2022-09-21T06:53:27;4.60;99.90
26691;DHT22;14307;51.718;8.938;2022-09-21T06:56:00;4.70;99.90
26691;DHT22;14307;51.718;8.938;2022-09-21T06:58:28;4.90;99.90
26691;DHT22;14307;51.718;8.938;2022-09-21T07:00:55;4.90;99.90
26691;DHT22;14307;51.718;8.938;2022-09-21T07:03:22;5.10;99.90
26691;DHT22;14307;51.718;8.938;2022-09-21T07:05:48;5.20;99.90
26691;DHT22;14307;51.718;8.938;2022-09-21T07:08:15;5.30;99.90
26691;DHT22;14307;51.718;8.938;2022-09-21T07:11:02;5.40;99.90
26691;DHT22;14307;51.718;8.938;2022-09-21T07:13:30;5.60;99.90
26691;DHT22;14307;51.718;8.938;2022-09-21T07:15:57;5.60;99.90
26691;DHT22;14307;51.718;8.938;2022-09-21T07:18:23;5.70;99.90
26691;DHT22;14307;51.718;8.938;2022-09-21T07:20:51;5.90;99.90
26691;DHT22;14307;51.718;8.938;2022-09-21T07:23:19;6.20;99.90
26691;DHT22;14307;51.718;8.938;2022-09-21T07:25:48;6.30;99.90
26691;DHT22;14307;51.718;8.938;2022-09-21T07:28:16;6.50;99.90
26691;DHT22;14307;51.718;8.938;2022-09-21T07:30:43;6.80;99.90
26691;DHT22;14307;51.718;8.938;2022-09-21T07:33:09;7.30;99.90
26691;DHT22;14307;51.718;8.938;2022-09-21T07:35:36;7.90;99.90
26691;DHT22;14307;51.718;8.938;2022-09-21T07:38:06;8.50;99.90
26691;DHT22;14307;51.718;8.938;2022-09-21T07:40:34;9.10;99.90
26691;DHT22;14307;51.718;8.938;2022-09-21T07:43:01;9.60;99.90
26691;DHT22;14307;51.718;8.938;2022-09-21T07:45:29;9.90;99.90
26691;DHT22;14307;51.718;8.938;2022-09-21T07:48:04;10.30;99.90
26691;DHT22;14307;51.718;8.938;2022-09-21T07:50:32;10.60;99.90
26691;DHT22;14307;51.718;8.938;2022-09-21T07:53:02;11.00;99.90
26691;DHT22;14307;51.718;8.938;2022-09-21T07:55:29;11.30;99.90
26691;DHT22;14307;51.718;8.938;2022-09-21T07:57:56;11.50;99.90
26691;DHT22;14307;51.718;8.938;2022-09-21T08:00:41;11.70;99.90
26691;DHT22;14307;51.718;8.938;2022-09-21T08:03:08;12.00;99.90
26691;DHT22;14307;51.718;8.938;2022-09-21T08:05:34;12.30;99.90
26691;DHT22;14307;51.718;8.938;2022-09-21T08:08:01;12.60;99.90
26691;DHT22;14307;51.718;8.938;2022-09-21T08:10:28;12.40;99.90
26691;DHT22;14307;51.718;8.938;2022-09-21T08:12:56;12.20;99.90
26691;DHT22;14307;51.718;8.938;2022-09-21T08:15:23;12.60;99.90
26691;DHT22;14307;51.718;8.938;2022-09-21T08:18:09;13.10;99.90
26691;DHT22;14307;51.718;8.938;2022-09-21T08:20:36;13.50;99.90
26691;DHT22;14307;51.718;8.938;2022-09-21T08:23:03;13.90;99.90
26691;DHT22;14307;51.718;8.938;2022-09-21T08:25:30;14.00;99.90
26691;DHT22;14307;51.718;8.938;2022-09-21T08:27:58;14.40;99.90
26691;DHT22;14307;51.718;8.938;2022-09-21T08:30:26;14.50;99.90
26691;DHT22;14307;51.718;8.938;2022-09-21T08:32:54;14.60;99.90
26691;DHT22;14307;51.718;8.938;2022-09-21T08:35:21;14.50;99.90
26691;DHT22;14307;51.718;8.938;2022-09-21T08:37:47;14.70;99.90
26691;DHT22;14307;51.718;8.938;2022-09-21T08:40:16;14.50;99.90
26691;DHT22;14307;51.718;8.938;2022-09-21T08:45:32;14.80;99.90
26691;DHT22;14307;51.718;8.938;2022-09-21T08:48:04;15.00;99.90
26691;DHT22;14307;51.718;8.938;2022-09-21T08:50:43;15.20;99.90
26691;DHT22;14307;51.718;8.938;2022-09-21T08:53:21;14.90;99.90
26691;DHT22;14307;51.718;8.938;2022-09-21T08:55:51;14.80;99.90
26691;DHT22;14307;51.718;8.938;2022-09-21T08:58:22;14.80;99.90
26691;DHT22;14307;51.718;8.938;2022-09-21T09:12:17;14.80;99.90
26691;DHT22;14307;51.718;8.938;2022-09-21T09:15:02;14.60;99.90
26691;DHT22;14307;51.718;8.938;2022-09-21T09:20:23;14.70;99.90
26691;DHT22;14307;51.718;8.938;2022-09-21T09:25:21;14.80;99.90
26691;DHT22;14307;51.718;8.938;2022-09-21T09:27:52;14.70;99.90
26691;DHT22;14307;51.718;8.938;2022-09-21T09:33:07;14.70;99.90
26691;DHT22;14307;51.718;8.938;2022-09-21T09:35:44;15.00;99.90
26691;DHT22;14307;51.718;8.938;2022-09-21T09:51:32;15.60;99.90
26691;DHT22;14307;51.718;8.938;2022-09-21T09:54:02;15.80;99.90
26691;DHT22;14307;51.718;8.938;2022-09-21T09:56:35;16.10;99.90
26691;DHT22;14307;51.718;8.938;2022-09-21T09:59:04;16.00;99.90
26691;DHT22;14307;51.718;8.938;2022-09-21T10:01:38;16.20;99.90
26691;DHT22;14307;51.718;8.938;2022-09-21T10:04:07;16.40;99.90
26691;DHT22;14307;51.718;8.938;2022-09-21T10:06:34;16.30;99.90
26691;DHT22;14307;51.718;8.938;2022-09-21T10:09:33;16.50;99.90
26691;DHT22;14307;51.718;8.938;2022-09-21T10:12:14;16.60;99.90
26691;DHT22;14307;51.718;8.938;2022-09-21T10:14:49;16.40;99.90
26691;DHT22;14307;51.718;8.938;2022-09-21T10:17:17;16.40;99.90
26691;DHT22;14307;51.718;8.938;2022-09-21T10:19:47;16.70;99.90
26691;DHT22;14307;51.718;8.938;2022-09-21T10:22:18;17.30;99.90
26691;DHT22;14307;51.718;8.938;2022-09-21T10:24:51;17.10;99.90
26691;DHT22;14307;51.718;8.938;2022-09-21T10:27:25;16.90;99.90
26691;DHT22;14307;51.718;8.938;2022-09-21T10:29:53;17.10;99.90
26691;DHT22;14307;51.718;8.938;2022-09-21T10:32:23;17.50;99.90
26691;DHT22;14307;51.718;8.938;2022-09-21T10:40:03;17.80;99.90
26691;DHT22;14307;51.718;8.938;2022-09-21T10:42:35;17.60;99.90
26691;DHT22;14307;51.718;8.938;2022-09-21T10:45:19;17.10;99.90
26691;DHT22;14307;51.718;8.938;2022-09-21T10:50:45;16.20;99.90
26691;DHT22;14307;51.718;8.938;2022-09-21T10:53:33;16.20;99.90
26691;DHT22;14307;51.718;8.938;2022-09-21T11:01:50;15.80;99.90
26691;DHT22;14307;51.718;8.938;2022-09-21T11:06:50;15.70;99.90
26691;DHT22;14307;51.718;8.938;2022-09-21T11:09:26;15.50;99.90
26691;DHT22;14307;51.718;8.938;2022-09-21T11:12:01;14.70;99.90
26691;DHT22;14307;51.718;8.938;2022-09-21T11:17:21;14.90;99.90
26691;DHT22;14307;51.718;8.938;2022-09-21T11:28:25;15.50;99.90
26691;DHT22;14307;51.718;8.938;2022-09-21T11:36:33;16.00;99.90
26691;DHT22;14307;51.718;8.938;2022-09-21T11:42:18;15.80;99.90
26691;DHT22;14307;51.718;8.938;2022-09-21T11:44:55;15.60;99.90
26691;DHT22;14307;51.718;8.938;2022-09-21T11:47:43;15.50;99.90
26691;DHT22;14307;51.718;8.938;2022-09-21T11:50:33;15.50;99.90
26691;DHT22;14307;51.718;8.938;2022-09-21T11:53:24;15.60;99.90
26691;DHT22;14307;51.718;8.938;2022-09-21T11:58:38;15.20;99.90
26691;DHT22;14307;51.718;8.938;2022-09-21T12:04:22;15.00;99.90
26691;DHT22;14307;51.718;8.938;2022-09-21T12:09:53;14.80;99.90
26691;DHT22;14307;51.718;8.938;2022-09-21T12:12:43;14.60;99.90
26691;DHT22;14307;51.718;8.938;2022-09-21T12:15:19;14.80;99.90
26691;DHT22;14307;51.718;8.938;2022-09-21T12:23:42;15.70;99.90
26691;DHT22;14307;51.718;8.938;2022-09-21T12:26:15;15.70;99.90
26691;DHT22;14307;51.718;8.938;2022-09-21T12:28:50;15.90;99.90
26691;DHT22;14307;51.718;8.938;2022-09-21T12:31:57;16.10;99.90
26691;DHT22;14307;51.718;8.938;2022-09-21T12:34:29;16.20;99.90
26691;DHT22;14307;51.718;8.938;2022-09-21T12:37:28;16.00;99.90
26691;DHT22;14307;51.718;8.938;2022-09-21T12:39:59;16.30;99.90
26691;DHT22;14307;51.718;8.938;2022-09-21T12:45:06;16.50;99.90
26691;DHT22;14307;51.718;8.938;2022-09-21T12:50:41;16.50;99.90
26691;DHT22;14307;51.718;8.938;2022-09-21T12:53:18;16.60;99.90
26691;DHT22;14307;51.718;8.938;2022-09-21T12:55:55;16.60;99.90
26691;DHT22;14307;51.718;8.938;2022-09-21T12:58:40;16.40;99.90
26691;DHT22;14307;51.718;8.938;2022-09-21T13:01:30;16.40;99.90
26691;DHT22;14307;51.718;8.938;2022-09-21T13:09:40;16.10;99.90
26691;DHT22;14307;51.718;8.938;2022-09-21T13:12:09;16.10;99.90
26691;DHT22;14307;51.718;8.938;2022-09-21T13:14:48;16.20;99.90
26691;DHT22;14307;51.718;8.938;2022-09-21T13:17:21;16.20;99.90
26691;DHT22;14307;51.718;8.938;2022-09-21T13:19:57;16.20;99.90
26691;DHT22;14307;51.718;8.938;2022-09-21T13:22:27;16.20;99.90
26691;DHT22;14307;51.718;8.938;2022-09-21T13:28:01;16.20;99.90
26691;DHT22;14307;51.718;8.938;2022-09-21T13:30:41;16.40;99.90
26691;DHT22;14307;51.718;8.938;2022-09-21T13:33:28;16.40;99.90
26691;DHT22;14307;51.718;8.938;2022-09-21T13:46:56;17.60;99.90
26691;DHT22;14307;51.718;8.938;2022-09-21T13:49:30;17.60;99.90
26691;DHT22;14307;51.718;8.938;2022-09-21T13:57:15;17.80;99.90
26691;DHT22;14307;51.718;8.938;2022-09-21T13:59:44;17.70;99.90
26691;DHT22;14307;51.718;8.938;2022-09-21T14:02:27;17.50;99.90
26691;DHT22;14307;51.718;8.938;2022-09-21T14:07:57;17.70;99.90
26691;DHT22;14307;51.718;8.938;2022-09-21T14:10:26;17.70;99.90
26691;DHT22;14307;51.718;8.938;2022-09-21T14:12:55;17.80;99.90
26691;DHT22;14307;51.718;8.938;2022-09-21T14:20:33;17.80;99.90
26691;DHT22;14307;51.718;8.938;2022-09-21T14:25:52;17.60;99.90
26691;DHT22;14307;51.718;8.938;2022-09-21T14:28:30;17.60;99.90
26691;DHT22;14307;51.718;8.938;2022-09-21T14:31:27;17.50;99.90
26691;DHT22;14307;51.718;8.938;2022-09-21T14:33:57;17.50;99.90
26691;DHT22;14307;51.718;8.938;2022-09-21T14:36:31;17.60;99.90
26691;DHT22;14307;51.718;8.938;2022-09-21T14:39:05;17.40;99.90
26691;DHT22;14307;51.718;8.938;2022-09-21T14:41:39;17.40;99.90
26691;DHT22;14307;51.718;8.938;2022-09-21T14:44:11;17.30;99.90
26691;DHT22;14307;51.718;8.938;2022-09-21T14:52:31;17.30;99.90
26691;DHT22;14307;51.718;8.938;2022-09-21T14:55:10;17.10;99.90
26691;DHT22;14307;51.718;8.938;2022-09-21T15:00:44;16.80;99.90
26691;DHT22;14307;51.718;8.938;2022-09-21T15:03:47;16.50;99.90
26691;DHT22;14307;51.718;8.938;2022-09-21T15:06:30;16.40;99.90
26691;DHT22;14307;51.718;8.938;2022-09-21T15:12:46;16.10;99.90
26691;DHT22;14307;51.718;8.938;2022-09-21T15:17:54;15.80;99.90
26691;DHT22;14307;51.718;8.938;2022-09-21T15:20:27;16.00;99.90
26691;DHT22;14307;51.718;8.938;2022-09-21T15:22:55;16.10;99.90
26691;DHT22;14307;51.718;8.938;2022-09-21T15:25:25;16.30;99.90
26691;DHT22;14307;51.718;8.938;2022-09-21T15:27:53;16.30;99.90
26691;DHT22;14307;51.718;8.938;2022-09-21T15:30:23;16.40;99.90
26691;DHT22;14307;51.718;8.938;2022-09-21T15:32:53;16.30;99.90
26691;DHT22;14307;51.718;8.938;2022-09-21T15:35:21;16.10;99.90
26691;DHT22;14307;51.718;8.938;2022-09-21T15:37:50;16.00;99.90
26691;DHT22;14307;51.718;8.938;2022-09-21T15:40:24;16.00;99.90
26691;DHT22;14307;51.718;8.938;2022-09-21T15:45:45;16.00;99.90
26691;DHT22;14307;51.718;8.938;2022-09-21T15:48:12;16.00;99.90
26691;DHT22;14307;51.718;8.938;2022-09-21T15:50:40;15.80;99.90
26691;DHT22;14307;51.718;8.938;2022-09-21T15:53:16;15.90;99.90
26691;DHT22;14307;51.718;8.938;2022-09-21T15:55:47;15.90;99.90
26691;DHT22;14307;51.718;8.938;2022-09-21T15:58:41;15.70;99.90
26691;DHT22;14307;51.718;8.938;2022-09-21T16:01:21;15.50;99.90
26691;DHT22;14307;51.718;8.938;2022-09-21T16:04:01;15.40;99.90
26691;DHT22;14307;51.718;8.938;2022-09-21T16:06:37;15.20;99.90
26691;DHT22;14307;51.718;8.938;2022-09-21T16:11:49;15.00;99.90
26691;DHT22;14307;51.718;8.938;2022-09-21T16:14:20;15.10;99.90
26691;DHT22;14307;51.718;8.938;2022-09-21T16:22:24;14.80;99.90
26691;DHT22;14307;51.718;8.938;2022-09-21T16:24:56;14.80;99.90
26691;DHT22;14307;51.718;8.938;2022-09-21T16:27:27;14.70;99.90
26691;DHT22;14307;51.718;8.938;2022-09-21T16:29:55;14.60;99.90
26691;DHT22;14307;51.718;8.938;2022-09-21T16:32:34;14.60;99.90
26691;DHT22;14307;51.718;8.938;2022-09-21T16:35:21;14.70;99.90
26691;DHT22;14307;51.718;8.938;2022-09-21T16:37:56;14.70;99.90
26691;DHT22;14307;51.718;8.938;2022-09-21T16:40:25;14.50;99.90
26691;DHT22;14307;51.718;8.938;2022-09-21T16:42:53;14.30;99.90
26691;DHT22;14307;51.718;8.938;2022-09-21T16:45:29;14.30;99.90
26691;DHT22;14307;51.718;8.938;2022-09-21T16:47:57;14.30;99.90
26691;DHT22;14307;51.718;8.938;2022-09-21T16:50:24;14.20;99.90
26691;DHT22;14307;51.718;8.938;2022-09-21T16:52:51;14.10;99.90
26691;DHT22;14307;51.718;8.938;2022-09-21T16:55:18;14.20;99.90
26691;DHT22;14307;51.718;8.938;2022-09-21T16:57:45;14.10;99.90
26691;DHT22;14307;51.718;8.938;2022-09-21T17:00:16;14.10;99.90
26691;DHT22;14307;51.718;8.938;2022-09-21T17:02:47;13.90;99.90
26691;DHT22;14307;51.718;8.938;2022-09-21T17:05:14;13.90;99.90
26691;DHT22;14307;51.718;8.938;2022-09-21T17:07:55;13.80;99.90
26691;DHT22;14307;51.718;8.938;2022-09-21T17:10:24;13.70;99.90
26691;DHT22;14307;51.718;8.938;2022-09-21T17:12:55;13.60;99.90
26691;DHT22;14307;51.718;8.938;2022-09-21T17:15:22;13.40;99.90
26691;DHT22;14307;51.718;8.938;2022-09-21T17:17:49;13.10;99.90
26691;DHT22;14307;51.718;8.938;2022-09-21T17:20:22;13.00;99.90
26691;DHT22;14307;51.718;8.938;2022-09-21T17:22:51;12.80;99.90
26691;DHT22;14307;51.718;8.938;2022-09-21T17:25:18;12.60;99.90
26691;DHT22;14307;51.718;8.938;2022-09-21T17:27:45;12.40;99.90
26691;DHT22;14307;51.718;8.938;2022-09-21T17:30:12;12.20;99.90
26691;DHT22;14307;51.718;8.938;2022-09-21T17:32:41;12.00;99.90
26691;DHT22;14307;51.718;8.938;2022-09-21T17:35:31;11.90;99.90
26691;DHT22;14307;51.718;8.938;2022-09-21T17:37:58;11.80;99.90
26691;DHT22;14307;51.718;8.938;2022-09-21T17:40:26;11.70;99.90
26691;DHT22;14307;51.718;8.938;2022-09-21T17:42:56;11.70;99.90
26691;DHT22;14307;51.718;8.938;2022-09-21T17:45:36;11.50;99.90
26691;DHT22;14307;51.718;8.938;2022-09-21T17:48:06;11.50;99.90
26691;DHT22;14307;51.718;8.938;2022-09-21T17:50:37;11.30;99.90
26691;DHT22;14307;51.718;8.938;2022-09-21T17:53:04;11.20;99.90
26691;DHT22;14307;51.718;8.938;2022-09-21T17:55:55;11.20;99.90
26691;DHT22;14307;51.718;8.938;2022-09-21T17:58:52;11.00;99.90
26691;DHT22;14307;51.718;8.938;2022-09-21T18:01:36;10.80;99.90
26691;DHT22;14307;51.718;8.938;2022-09-21T18:04:08;10.60;99.90
26691;DHT22;14307;51.718;8.938;2022-09-21T18:06:36;10.60;99.90
26691;DHT22;14307;51.718;8.938;2022-09-21T18:09:03;10.40;99.90
26691;DHT22;14307;51.718;8.938;2022-09-21T18:22:17;9.70;99.90
26691;DHT22;14307;51.718;8.938;2022-09-21T18:24:50;9.60;99.90
26691;DHT22;14307;51.718;8.938;2022-09-21T18:27:17;9.50;99.90
26691;DHT22;14307;51.718;8.938;2022-09-21T18:29:45;9.40;99.90
26691;DHT22;14307;51.718;8.938;2022-09-21T18:37:42;9.10;99.90
26691;DHT22;14307;51.718;8.938;2022-09-21T18:40:39;9.10;99.90
26691;DHT22;14307;51.718;8.938;2022-09-21T18:43:25;9.00;99.90
26691;DHT22;14307;51.718;8.938;2022-09-21T18:46:11;8.90;99.90
26691;DHT22;14307;51.718;8.938;2022-09-21T18:51:41;8.80;99.90
26691;DHT22;14307;51.718;8.938;2022-09-21T18:54:28;8.70;99.90
26691;DHT22;14307;51.718;8.938;2022-09-21T18:56:55;8.50;99.90
26691;DHT22;14307;51.718;8.938;2022-09-21T18:59:22;8.40;99.90
26691;DHT22;14307;51.718;8.938;2022-09-21T19:01:49;8.30;99.90
26691;DHT22;14307;51.718;8.938;2022-09-21T19:04:16;8.30;99.90
26691;DHT22;14307;51.718;8.938;2022-09-21T19:06:58;8.10;99.90
26691;DHT22;14307;51.718;8.938;2022-09-21T19:09:34;8.10;99.90
26691;DHT22;14307;51.718;8.938;2022-09-21T19:15:40;8.00;99.90
26691;DHT22;14307;51.718;8.938;2022-09-21T19:17:53;8.00;99.90
26691;DHT22;14307;51.718;8.938;2022-09-21T19:20:30;7.90;99.90
26691;DHT22;14307;51.718;8.938;2022-09-21T19:23:26;7.80;99.90
26691;DHT22;14307;51.718;8.938;2022-09-21T19:25:52;7.80;99.90
26691;DHT22;14307;51.718;8.938;2022-09-21T19:31:13;7.40;99.90
26691;DHT22;14307;51.718;8.938;2022-09-21T19:33:40;7.30;99.90
26691;DHT22;14307;51.718;8.938;2022-09-21T19:36:17;7.30;99.90
26691;DHT22;14307;51.718;8.938;2022-09-21T19:38:44;7.40;99.90